Time;durP1;ratioP1;P1;durP2;ratioP2;P2;SDS_P1;SDS_P2;PMS_P1;PMS_P2;Temp;Humidity;BMP_temperature;BMP_pressure;BME280_temperature;BME280_humidity;BME280_pressure;Samples;Min_cycle;Max_cycle;Signal;HPM_P1;HPM_P2
2022/09/07 00:02:21;;;;;;;1.20;0.95;;;;;;;9.12;95.36;100812.53;10554117;28;20036;-73
2022/09/07 00:07:23;;;;;;;1.10;1.00;;;;;;;9.13;94.76;100814.19;10563550;28;20070;-73
2022/09/07 00:12:25;;;;;;;0.93;0.88;;;;;;;9.12;95.75;100807.06;10565650;28;20047;-73
2022/09/07 00:17:28;;;;;;;1.65;1.17;;;;;;;9.11;95.01;100808.97;10562593;28;20037;-72
2022/09/07 00:22:30;;;;;;;0.75;0.60;;;;;;;9.09;95.52;100804.84;10566096;28;20059;-73
2022/09/07 00:27:32;;;;;;;1.60;1.00;;;;;;;9.06;95.60;100809.78;10549194;28;20529;-73
2022/09/07 00:32:34;;;;;;;0.82;0.75;;;;;;;9.04;95.58;100800.19;10562187;28;20040;-73
2022/09/07 00:37:36;;;;;;;1.10;1.00;;;;;;;9.01;95.04;100814.38;10565937;28;20044;-72
2022/09/07 00:42:39;;;;;;;1.10;1.00;;;;;;;8.97;94.88;100813.28;10559743;28;20036;-72
2022/09/07 00:47:53;;;;;;;2.15;1.10;;;;;;;8.94;94.98;100809.16;10567344;28;20043;-72
2022/09/07 00:53:04;;;;;;;1.38;1.00;;;;;;;8.98;95.25;100806.72;10572268;28;20048;-73
2022/09/07 00:58:06;;;;;;;0.98;0.80;;;;;;;8.98;95.64;100802.06;10572527;28;20040;-73
2022/09/07 01:03:09;;;;;;;1.27;0.95;;;;;;;8.94;95.06;100811.09;10572800;28;20036;-73
2022/09/07 01:08:12;;;;;;;1.95;0.95;;;;;;;8.91;95.72;100812.44;10555091;28;20056;-72
2022/09/07 01:13:14;;;;;;;2.20;1.20;;;;;;;8.93;95.59;100814.91;10557978;28;21674;-72
2022/09/07 01:18:41;;;;;;;1.60;1.02;;;;;;;8.90;95.49;100812.72;10572133;28;20046;-72
2022/09/07 01:23:52;;;;;;;0.73;0.73;;;;;;;8.90;95.09;100823.66;10572719;28;20062;-73
2022/09/07 01:29:32;;;;;;;1.92;0.93;;;;;;;8.91;95.07;100817.91;10568290;28;20040;-73
2022/09/07 01:34:36;;;;;;;1.67;1.08;;;;;;;8.89;95.53;100820.09;10572351;28;20040;-73
2022/09/07 01:39:46;;;;;;;1.00;0.90;;;;;;;8.83;95.42;100821.13;10572006;28;20039;-73
2022/09/07 01:44:59;;;;;;;1.27;1.00;;;;;;;8.80;95.38;100823.59;10568836;28;20032;-73
2022/09/07 01:50:21;;;;;;;1.13;0.80;;;;;;;8.75;95.27;100819.75;10552288;28;20059;-73
2022/09/07 01:55:34;;;;;;;1.20;1.00;;;;;;;8.71;96.14;100824.09;10570990;28;20052;-73
2022/09/07 02:00:39;;;;;;;1.98;1.17;;;;;;;8.67;95.71;100825.69;10568053;28;20040;-73
2022/09/07 02:05:44;;;;;;;1.50;1.17;;;;;;;8.66;95.47;100825.97;10553335;28;20040;-73
2022/09/07 02:11:03;;;;;;;1.20;1.00;;;;;;;8.65;96.52;100822.41;10568802;28;20051;-73
2022/09/07 02:16:13;;;;;;;1.95;1.00;;;;;;;8.64;96.70;100834.44;10555172;28;20032;-73
2022/09/07 02:21:21;;;;;;;0.88;0.80;;;;;;;8.64;95.84;100833.59;10562446;28;20040;-73
2022/09/07 02:26:24;;;;;;;1.45;0.90;;;;;;;8.64;95.83;100823.47;10583107;28;20047;-73
2022/09/07 02:31:27;;;;;;;0.73;0.60;;;;;;;8.62;96.20;100828.41;10547804;28;20771;-73
2022/09/07 02:36:35;;;;;;;1.10;0.80;;;;;;;8.61;96.79;100818.53;10567261;28;20043;-73
2022/09/07 02:41:42;;;;;;;1.40;0.98;;;;;;;8.64;96.28;100823.47;10567169;28;20051;-73
2022/09/07 02:47:03;;;;;;;2.20;0.88;;;;;;;8.59;96.62;100831.66;10565531;28;20064;-73
2022/09/07 02:52:32;;;;;;;1.55;1.00;;;;;;;8.61;96.08;100839.59;10576399;28;20043;-73
2022/09/07 02:57:47;;;;;;;1.10;0.80;;;;;;;8.56;96.14;100834.94;10553863;28;20036;-73
2022/09/07 03:03:21;;;;;;;1.85;1.10;;;;;;;8.49;97.19;100839.78;10561803;28;20040;-73
2022/09/07 03:08:48;;;;;;;2.97;0.85;;;;;;;8.46;96.75;100843.88;10548234;28;20058;-73
2022/09/07 03:14:10;;;;;;;1.10;0.85;;;;;;;8.45;97.01;100847.69;10565868;28;20299;-73
2022/09/07 03:19:12;;;;;;;0.93;0.88;;;;;;;8.43;96.39;100846.31;10567113;28;20047;-73
2022/09/07 03:24:15;;;;;;;0.85;0.60;;;;;;;8.43;96.41;100851.78;10560813;28;20426;-73
2022/09/07 03:29:17;;;;;;;0.75;0.60;;;;;;;8.38;96.94;100858.03;10565186;28;20044;-73
2022/09/07 03:34:20;;;;;;;0.68;0.65;;;;;;;8.36;96.38;100856.66;10567808;28;20051;-73
2022/09/07 03:39:22;;;;;;;0.50;0.43;;;;;;;8.39;96.39;100859.69;10564800;28;20044;-73
2022/09/07 03:44:25;;;;;;;0.82;0.80;;;;;;;8.40;96.12;100861.34;10566719;28;20036;-73
2022/09/07 03:49:27;;;;;;;1.25;0.75;;;;;;;8.42;96.49;100858.34;10567868;28;20048;-73
2022/09/07 03:54:29;;;;;;;0.57;0.57;;;;;;;8.43;96.38;100862.72;10568054;28;20414;-73
2022/09/07 03:59:37;;;;;;;0.50;0.50;;;;;;;8.51;95.61;100865.00;10566834;28;20039;-73
2022/09/07 04:04:41;;;;;;;1.40;0.80;;;;;;;8.69;95.74;100870.06;10565310;28;20126;-73
2022/09/07 04:09:43;;;;;;;1.65;0.80;;;;;;;8.79;95.48;100871.19;10563049;28;20513;-73
2022/09/07 04:14:45;;;;;;;0.60;0.60;;;;;;;8.83;95.28;100872.31;10563982;28;20393;-73
2022/09/07 04:19:48;;;;;;;1.85;0.82;;;;;;;8.85;94.54;100865.50;10563684;28;20043;-73
2022/09/07 04:24:50;;;;;;;0.32;0.32;;;;;;;8.93;94.55;100869.66;10562648;28;20036;-72
2022/09/07 04:29:52;;;;;;;1.80;0.52;;;;;;;8.94;94.65;100874.03;10563414;28;20046;-72
2022/09/07 04:34:55;;;;;;;0.93;0.70;;;;;;;8.97;94.17;100878.97;10556580;28;20063;-72
2022/09/07 04:39:57;;;;;;;0.57;0.35;;;;;;;8.98;93.73;100891.56;10548338;28;20032;-72
2022/09/07 04:44:59;;;;;;;0.57;0.57;;;;;;;8.93;92.29;100897.00;10568314;28;20541;-73
2022/09/07 04:50:02;;;;;;;3.03;0.63;;;;;;;9.05;92.44;100890.25;10567277;28;20610;-73
2022/09/07 04:55:04;;;;;;;0.98;0.68;;;;;;;9.36;92.17;100891.22;10567122;28;20044;-73
2022/09/07 05:00:08;;;;;;;2.03;0.60;;;;;;;9.41;91.71;100897.84;10566069;28;20032;-72
2022/09/07 05:05:10;;;;;;;0.60;0.52;;;;;;;9.38;90.96;100898.38;10555362;28;20044;-73
2022/09/07 05:10:12;;;;;;;0.60;0.60;;;;;;;9.44;89.30;100910.97;10555043;28;20039;-73
2022/09/07 05:15:15;;;;;;;0.60;0.60;;;;;;;9.46;89.38;100914.28;10567003;28;20040;-73
2022/09/07 05:20:18;;;;;;;0.77;0.55;;;;;;;9.76;88.53;100911.66;10568914;28;20413;-73
2022/09/07 05:25:21;;;;;;;0.98;0.68;;;;;;;10.09;86.95;100918.63;10567170;28;20036;-73
2022/09/07 05:30:23;;;;;;;0.63;0.40;;;;;;;10.07;86.36;100920.81;10566969;28;20036;-73
2022/09/07 05:35:25;;;;;;;0.40;0.40;;;;;;;9.94;84.39;100918.56;10566471;28;20043;-73
2022/09/07 05:40:31;;;;;;;0.40;0.40;;;;;;;9.87;83.55;100921.53;10571297;28;20051;-73
2022/09/07 05:45:33;;;;;;;0.85;0.60;;;;;;;9.77;83.57;100929.75;10575771;28;20548;-73
2022/09/07 05:50:36;;;;;;;1.02;0.70;;;;;;;9.63;83.74;100936.81;10575419;28;20055;-73
2022/09/07 05:55:38;;;;;;;0.38;0.38;;;;;;;9.36;84.75;100939.69;10575156;28;20036;-73
2022/09/07 06:00:40;;;;;;;0.30;0.20;;;;;;;9.28;85.97;100948.41;10574446;28;20417;-73
2022/09/07 06:05:42;;;;;;;0.40;0.35;;;;;;;9.64;85.83;100946.69;10575167;28;20130;-73
2022/09/07 06:10:46;;;;;;;0.40;0.40;;;;;;;10.29;85.59;100939.78;10567306;28;20048;-73
2022/09/07 06:15:48;;;;;;;0.32;0.30;;;;;;;10.47;84.55;100939.25;10575185;28;20051;-73
2022/09/07 06:20:50;;;;;;;0.47;0.30;;;;;;;10.49;82.25;100959.03;10574432;28;20043;-73
2022/09/07 06:25:52;;;;;;;0.20;0.20;;;;;;;10.44;80.88;100964.50;10573072;28;20048;-73
2022/09/07 06:31:01;;;;;;;0.20;0.20;;;;;;;10.80;80.26;100953.56;10573989;28;20056;-73
2022/09/07 06:36:06;;;;;;;0.20;0.20;;;;;;;10.78;79.16;100961.25;10550981;28;20067;-73
2022/09/07 06:41:10;;;;;;;0.30;0.30;;;;;;;10.96;78.86;100968.09;10573257;28;20533;-73
2022/09/07 06:46:14;;;;;;;0.00;0.00;;;;;;;11.36;76.84;100965.28;10573560;28;20043;-73
2022/09/07 06:51:18;;;;;;;5.88;1.27;;;;;;;11.74;76.12;100979.44;10571616;28;20048;-73
2022/09/07 06:56:20;;;;;;;0.30;0.30;;;;;;;11.34;74.52;100991.38;10571696;28;20036;-73
2022/09/07 07:01:23;;;;;;;0.20;0.20;;;;;;;10.92;73.89;101000.75;10571215;28;20048;-73
2022/09/07 07:06:36;;;;;;;0.30;0.30;;;;;;;10.64;74.89;101004.03;10554149;28;20043;-73
2022/09/07 07:11:38;;;;;;;0.38;0.30;;;;;;;10.43;75.93;101009.50;10570477;28;20035;-73
2022/09/07 07:16:42;;;;;;;1.48;0.13;;;;;;;10.24;75.90;101014.66;10572147;28;20040;-73
2022/09/07 07:21:44;;;;;;;0.63;0.25;;;;;;;10.30;75.46;101026.47;10570509;28;20059;-73
2022/09/07 07:26:47;;;;;;;0.40;0.32;;;;;;;10.02;78.05;101032.34;10571596;28;20051;-73
2022/09/07 07:31:49;;;;;;;0.30;0.30;;;;;;;9.59;80.25;101037.09;10570308;28;20059;-73
2022/09/07 07:36:53;;;;;;;0.30;0.30;;;;;;;9.32;82.07;101048.13;10571353;28;20035;-73
2022/09/07 07:41:55;;;;;;;0.50;0.40;;;;;;;9.12;82.83;101056.19;10570775;28;20055;-73
2022/09/07 07:46:58;;;;;;;0.40;0.40;;;;;;;9.01;82.75;101047.88;10569389;28;20514;-73
2022/09/07 07:52:00;;;;;;;2.70;0.50;;;;;;;9.34;83.04;101054.97;10570399;28;20055;-73
2022/09/07 07:57:04;;;;;;;0.73;0.47;;;;;;;10.63;82.18;101051.78;10552602;28;20505;-73
2022/09/07 08:02:13;;;;;;;0.40;0.40;;;;;;;11.69;78.92;101046.28;10552596;28;20036;-73
2022/09/07 08:07:16;;;;;;;0.73;0.40;;;;;;;11.88;75.14;101056.72;10569700;28;20060;-73
2022/09/07 08:12:19;;;;;;;1.00;0.45;;;;;;;11.76;74.80;101057.78;10564470;28;20047;-74
2022/09/07 08:17:21;;;;;;;0.73;0.50;;;;;;;11.56;74.14;101065.28;10569906;28;20051;-73
2022/09/07 08:22:23;;;;;;;6.38;2.00;;;;;;;11.22;74.54;101073.25;10569638;28;20036;-73
2022/09/07 08:27:25;;;;;;;0.63;0.40;;;;;;;11.01;75.30;101075.19;10569016;28;20399;-73
2022/09/07 08:32:30;;;;;;;0.63;0.50;;;;;;;11.78;73.61;101080.38;10558196;28;20048;-73
2022/09/07 08:37:32;;;;;;;0.80;0.40;;;;;;;11.83;71.88;101084.22;10547607;28;20044;-73
2022/09/07 08:42:42;;;;;;;0.55;0.20;;;;;;;12.50;71.32;101094.72;10567665;28;20048;-73
2022/09/07 08:47:49;;;;;;;0.20;0.20;;;;;;;12.14;70.65;101101.44;10568893;28;20036;-73
2022/09/07 08:52:56;;;;;;;0.10;0.08;;;;;;;11.26;69.89;101107.31;10565478;28;20052;-73
2022/09/07 08:58:11;;;;;;;0.73;0.38;;;;;;;11.33;71.72;101097.72;10591382;28;20039;-73
2022/09/07 09:03:20;;;;;;;0.40;0.40;;;;;;;11.68;71.36;101102.38;10576633;28;20043;-73
2022/09/07 09:08:22;;;;;;;5.75;0.30;;;;;;;11.87;70.10;101096.31;10567611;28;20395;-74
2022/09/07 09:14:08;;;;;;;0.13;0.13;;;;;;;11.71;69.60;101109.22;10574871;28;20044;-75
2022/09/07 09:19:40;;;;;;;0.10;0.10;;;;;;;11.45;67.57;101105.66;10577251;28;20055;-75
2022/09/07 09:24:48;;;;;;;0.85;0.20;;;;;;;11.15;68.68;101106.50;10580294;28;20048;-75
2022/09/07 09:29:50;;;;;;;5.40;1.30;;;;;;;10.98;69.74;101109.50;10583093;28;20044;-76
2022/09/07 09:35:14;;;;;;;2.10;0.60;;;;;;;10.85;69.59;101115.50;10571155;28;20047;-76
2022/09/07 09:40:25;;;;;;;1.38;0.30;;;;;;;10.70;70.47;101119.03;10568598;28;20046;-76
2022/09/07 09:45:30;;;;;;;6.18;0.68;;;;;;;10.55;71.79;101117.06;10557566;28;20414;-77
2022/09/07 09:50:37;;;;;;;0.35;0.15;;;;;;;10.23;72.02;101139.16;10574798;28;20047;-76
2022/09/07 09:55:40;;;;;;;0.10;0.10;;;;;;;9.98;72.79;101136.25;10572975;28;20036;-77
2022/09/07 10:01:02;;;;;;;4.22;0.40;;;;;;;9.96;73.67;101135.69;10573232;28;20040;-77
2022/09/07 10:06:08;;;;;;;1.05;0.40;;;;;;;10.07;74.60;101142.06;10581634;28;20132;-77
2022/09/07 10:11:13;;;;;;;0.68;0.60;;;;;;;10.20;74.65;101138.84;10551539;28;20078;-76
2022/09/07 10:16:18;;;;;;;1.38;0.43;;;;;;;10.31;74.94;101143.31;10555679;28;20044;-74
2022/09/07 10:21:31;;;;;;;0.30;0.30;;;;;;;10.53;75.43;101143.97;10572514;28;20040;-74
2022/09/07 10:26:37;;;;;;;0.43;0.30;;;;;;;10.42;74.50;101141.47;10571150;28;20498;-74
2022/09/07 10:31:56;;;;;;;0.30;0.30;;;;;;;10.21;74.47;101146.81;10531798;28;20047;-74
2022/09/07 10:37:10;;;;;;;1.33;0.35;;;;;;;10.14;74.77;101151.69;10553975;28;20526;-74
2022/09/07 10:42:12;;;;;;;0.47;0.22;;;;;;;10.23;74.54;101141.91;10572369;28;20032;-74
2022/09/07 10:47:32;;;;;;;0.40;0.40;;;;;;;10.20;74.45;101153.38;10552938;28;20040;-74
2022/09/07 10:52:48;;;;;;;3.33;0.57;;;;;;;10.17;74.87;101161.31;10571977;28;20054;-75
2022/09/07 10:58:13;;;;;;;0.30;0.30;;;;;;;10.18;75.82;101165.72;10570350;28;20517;-76
2022/09/07 11:03:39;;;;;;;0.82;0.40;;;;;;;10.18;75.05;101191.22;10570454;28;20048;-74
2022/09/07 11:08:48;;;;;;;2.53;0.60;;;;;;;10.02;75.31;101183.97;10561618;28;20051;-74
2022/09/07 11:13:52;;;;;;;1.73;0.57;;;;;;;9.81;75.38;101177.53;10568191;28;20032;-73
2022/09/07 11:19:03;;;;;;;2.20;1.20;;;;;;;9.72;76.90;101184.59;10578666;28;20042;-73
2022/09/07 11:24:15;;;;;;;0.50;0.50;;;;;;;9.93;77.14;101175.44;10569169;28;20430;-73
2022/09/07 11:29:34;;;;;;;0.77;0.40;;;;;;;10.00;77.43;101180.69;10569867;28;20048;-73
2022/09/07 11:34:56;;;;;;;0.43;0.30;;;;;;;10.04;76.13;101202.91;10544102;28;20036;-76
2022/09/07 11:40:30;;;;;;;0.57;0.43;;;;;;;9.88;75.87;101191.81;10557363;28;20028;-73
2022/09/07 11:45:53;;;;;;;0.30;0.30;;;;;;;9.77;75.32;101197.50;10568948;28;20036;-73
2022/09/07 11:51:00;;;;;;;0.30;0.28;;;;;;;9.91;75.87;101199.56;10568131;28;20048;-73
2022/09/07 11:56:25;;;;;;;0.20;0.20;;;;;;;9.95;75.52;101206.16;10563943;28;20453;-73
2022/09/07 12:01:43;;;;;;;1.98;0.43;;;;;;;9.88;75.37;101197.31;10568315;28;20043;-73
2022/09/07 12:07:17;;;;;;;2.13;0.85;;;;;;;9.91;76.34;101201.47;10570571;28;20055;-73
2022/09/07 12:12:49;;;;;;;5.15;0.60;;;;;;;10.06;76.23;101203.47;10570417;28;20486;-73
2022/09/07 12:18:23;;;;;;;0.22;0.22;;;;;;;10.19;74.07;101201.09;10569885;28;20039;-73
2022/09/07 12:23:28;;;;;;;0.90;0.57;;;;;;;10.28;73.53;101204.22;10547760;28;20410;-73
2022/09/07 12:28:33;;;;;;;2.10;0.60;;;;;;;10.37;73.03;101208.09;10565433;28;20043;-73
2022/09/07 12:33:39;;;;;;;0.50;0.30;;;;;;;10.39;72.40;101216.03;10568143;28;20040;-73
2022/09/07 12:39:05;;;;;;;4.22;0.43;;;;;;;10.44;72.01;101214.19;10548980;28;20036;-73
2022/09/07 12:44:14;;;;;;;1.02;0.43;;;;;;;10.51;72.01;101222.97;10573957;28;20120;-73
2022/09/07 12:49:31;;;;;;;12.05;1.67;;;;;;;10.47;73.50;101232.84;10572304;28;20043;-73
2022/09/07 12:54:49;;;;;;;0.85;0.45;;;;;;;10.23;73.78;101243.38;10574243;28;20032;-73
2022/09/07 13:00:05;;;;;;;2.28;0.77;;;;;;;9.96;73.58;101246.19;10572121;28;20031;-72
2022/09/07 13:05:48;;;;;;;3.42;0.47;;;;;;;9.77;73.41;101244.94;10567808;28;20038;-73
2022/09/07 13:10:51;;;;;;;3.53;0.40;;;;;;;9.72;73.91;101231.19;10548430;28;20047;-73
2022/09/07 13:16:05;;;;;;;0.25;0.22;;;;;;;9.79;74.69;101237.28;10574853;28;20490;-73
2022/09/07 13:21:07;;;;;;;0.30;0.30;;;;;;;9.91;72.83;101239.84;10574282;28;20047;-73
2022/09/07 13:26:50;;;;;;;1.25;0.50;;;;;;;9.88;70.21;101248.56;10574752;28;20052;-73
2022/09/07 13:32:04;;;;;;;5.95;0.80;;;;;;;9.83;69.76;101260.31;10573262;28;20056;-73
2022/09/07 13:37:14;;;;;;;1.15;0.43;;;;;;;9.79;69.33;101250.97;10572279;28;20080;-73
2022/09/07 13:42:19;;;;;;;3.60;0.50;;;;;;;9.75;69.23;101255.34;10577205;28;20413;-73
2022/09/07 13:47:47;;;;;;;0.20;0.20;;;;;;;9.76;68.83;101264.38;10571731;28;20517;-73
2022/09/07 13:52:58;;;;;;;2.25;1.05;;;;;;;9.77;69.94;101269.59;10582263;28;20059;-73
2022/09/07 13:58:17;;;;;;;1.05;0.30;;;;;;;9.78;69.36;101282.22;10568060;28;20047;-74
2022/09/07 14:03:20;;;;;;;0.98;0.40;;;;;;;9.80;68.33;101279.22;10574682;28;20039;-74
2022/09/07 14:08:27;;;;;;;1.00;0.20;;;;;;;9.84;67.60;101278.41;10573176;28;20040;-74
2022/09/07 14:13:29;;;;;;;0.30;0.30;;;;;;;9.82;67.35;101277.03;10574013;28;20043;-73
2022/09/07 14:18:32;;;;;;;1.60;0.30;;;;;;;9.84;65.75;101283.06;10573510;28;21004;-74
2022/09/07 14:23:35;;;;;;;3.42;0.38;;;;;;;9.88;66.71;101290.50;10580723;28;20048;-76
2022/09/07 14:28:38;;;;;;;4.63;0.60;;;;;;;9.93;66.69;101289.75;10575041;28;20051;-73
2022/09/07 14:33:51;;;;;;;4.28;1.13;;;;;;;10.02;66.29;101301.88;10551053;28;20391;-73
2022/09/07 14:38:54;;;;;;;0.63;0.50;;;;;;;10.01;65.88;101302.13;10568055;28;20051;-72
2022/09/07 14:43:58;;;;;;;0.45;0.45;;;;;;;9.96;65.06;101294.72;10541369;28;20514;-73
2022/09/07 14:49:12;;;;;;;0.80;0.50;;;;;;;9.95;65.07;101304.84;10571768;28;20056;-72
2022/09/07 14:54:20;;;;;;;2.00;0.57;;;;;;;9.92;65.28;101305.38;10569276;28;20044;-72
2022/09/07 14:59:40;;;;;;;1.33;0.60;;;;;;;9.82;65.88;101313.50;10571031;28;20032;-72
2022/09/07 15:04:47;;;;;;;0.57;0.57;;;;;;;9.77;66.12;101318.09;10570394;28;20417;-72
2022/09/07 15:09:49;;;;;;;1.27;0.50;;;;;;;9.74;66.34;101329.59;10575953;28;20063;-72
2022/09/07 15:14:53;;;;;;;0.68;0.32;;;;;;;9.71;66.83;101328.16;10574016;28;20563;-73
2022/09/07 15:19:55;;;;;;;1.38;0.50;;;;;;;9.69;66.46;101335.81;10568569;28;20411;-72
2022/09/07 15:24:58;;;;;;;0.52;0.32;;;;;;;9.63;65.99;101336.88;10551658;28;20046;-73
2022/09/07 15:30:00;;;;;;;0.40;0.30;;;;;;;9.61;66.62;101330.81;10564668;28;20082;-73
2022/09/07 15:35:02;;;;;;;0.52;0.30;;;;;;;9.57;67.17;101338.72;10559237;28;20048;-74
2022/09/07 15:40:15;;;;;;;1.55;0.50;;;;;;;9.53;68.06;101339.47;10562696;28;20498;-74
2022/09/07 15:45:17;;;;;;;0.88;0.40;;;;;;;9.49;68.25;101347.41;10568404;28;20036;-74
2022/09/07 15:50:20;;;;;;;0.70;0.43;;;;;;;9.47;68.94;101356.97;10567133;28;20051;-74
2022/09/07 15:55:24;;;;;;;4.97;0.60;;;;;;;9.42;68.52;101354.16;10567332;28;20058;-74
2022/09/07 16:00:26;;;;;;;0.93;0.60;;;;;;;9.42;68.19;101345.94;10567924;28;20422;-74
2022/09/07 16:05:28;;;;;;;1.23;0.70;;;;;;;9.40;68.14;101367.28;10567639;28;20043;-74
2022/09/07 16:10:30;;;;;;;2.42;0.65;;;;;;;9.39;68.25;101365.63;10567417;28;20043;-74
2022/09/07 16:15:33;;;;;;;1.42;0.60;;;;;;;9.36;68.27;101370.53;10567870;28;20048;-74
2022/09/07 16:20:42;;;;;;;0.45;0.45;;;;;;;9.34;69.16;101380.06;10563064;28;20036;-74
2022/09/07 16:25:58;;;;;;;0.85;0.65;;;;;;;9.32;68.68;101383.06;10570823;28;20032;-74
2022/09/07 16:31:13;;;;;;;1.73;0.60;;;;;;;9.28;68.92;101390.16;10580520;28;20032;-74
2022/09/07 16:36:17;;;;;;;2.42;0.70;;;;;;;9.23;69.64;101389.28;10567350;28;20040;-74
2022/09/07 16:41:27;;;;;;;1.42;0.75;;;;;;;9.19;68.55;101388.91;10567205;28;20047;-74
2022/09/07 16:46:30;;;;;;;2.88;0.90;;;;;;;9.17;69.06;101402.03;10570524;28;20051;-74
2022/09/07 16:51:34;;;;;;;3.10;2.10;;;;;;;9.15;69.38;101403.38;10566534;28;20048;-74
2022/09/07 16:56:36;;;;;;;1.40;0.80;;;;;;;9.11;70.16;101408.53;10565602;28;20557;-74
2022/09/07 17:01:38;;;;;;;2.03;0.88;;;;;;;9.05;69.25;101415.03;10564756;28;20024;-74
2022/09/07 17:06:41;;;;;;;2.03;0.70;;;;;;;9.01;69.91;101419.34;10560734;28;20048;-74
2022/09/07 17:11:43;;;;;;;1.70;0.80;;;;;;;8.99;69.62;101421.50;10565561;28;20043;-74
2022/09/07 17:16:45;;;;;;;2.50;1.30;;;;;;;8.99;69.93;101433.28;10566683;28;21377;-74
2022/09/07 17:21:50;;;;;;;1.77;0.75;;;;;;;8.94;70.27;101427.72;10565682;28;20040;-74
2022/09/07 17:26:52;;;;;;;1.50;0.98;;;;;;;8.87;71.32;101424.34;10548497;28;20040;-74
2022/09/07 17:31:56;;;;;;;2.78;1.00;;;;;;;8.83;71.42;101436.03;10566662;28;20417;-74
2022/09/07 17:36:58;;;;;;;0.73;0.73;;;;;;;8.81;71.79;101440.94;10574968;28;20031;-74
2022/09/07 17:42:00;;;;;;;1.35;0.90;;;;;;;8.75;72.40;101446.31;10575551;28;20494;-74
2022/09/07 17:47:03;;;;;;;1.70;1.00;;;;;;;8.72;71.78;101451.47;10575458;28;20051;-74
2022/09/07 17:52:06;;;;;;;2.00;1.30;;;;;;;8.66;72.81;101458.75;10569591;28;20048;-74
2022/09/07 17:57:13;;;;;;;3.95;1.80;;;;;;;8.62;73.07;101468.53;10573857;28;20430;-74
2022/09/07 18:02:15;;;;;;;5.17;2.90;;;;;;;8.50;73.42;101462.31;10564098;28;20036;-74
2022/09/07 18:07:17;;;;;;;3.80;2.15;;;;;;;8.41;74.26;101466.53;10573866;28;20130;-74
2022/09/07 18:12:21;;;;;;;3.97;1.90;;;;;;;8.34;74.55;101463.97;10572573;28;20047;-74
2022/09/07 18:17:23;;;;;;;3.80;2.35;;;;;;;8.28;74.56;101475.00;10569552;28;20052;-74
2022/09/07 18:22:25;;;;;;;3.03;1.75;;;;;;;8.16;75.20;101472.34;10558633;27;20537;-74
2022/09/07 18:27:29;;;;;;;2.55;2.03;;;;;;;8.09;76.09;101486.16;10544556;28;20040;-74
2022/09/07 18:32:32;;;;;;;3.15;1.70;;;;;;;8.02;75.96;101485.47;10543056;28;20036;-74
2022/09/07 18:37:34;;;;;;;2.25;1.30;;;;;;;7.94;76.54;101485.84;10556721;28;20047;-74
2022/09/07 18:42:37;;;;;;;4.20;1.10;;;;;;;7.89;76.70;101488.47;10549581;28;20055;-73
2022/09/07 18:47:39;;;;;;;2.63;0.98;;;;;;;7.85;76.90;101484.59;10556052;28;20035;-74
2022/09/07 18:52:41;;;;;;;1.98;1.10;;;;;;;7.81;76.08;101492.44;10559569;27;20550;-74
2022/09/07 18:57:45;;;;;;;1.77;0.90;;;;;;;7.79;76.58;101493.72;10542820;28;20051;-74
2022/09/07 19:02:49;;;;;;;1.80;1.00;;;;;;;7.77;76.87;101501.34;10552038;28;20044;-74
2022/09/07 19:07:51;;;;;;;2.30;0.90;;;;;;;7.75;76.48;101498.03;10551448;28;20040;-74
2022/09/07 19:12:55;;;;;;;2.13;1.10;;;;;;;7.68;76.73;101500.91;10542749;28;20048;-74
2022/09/07 19:17:57;;;;;;;2.75;1.17;;;;;;;7.63;76.87;101511.69;10547501;28;20410;-74
2022/09/07 19:22:59;;;;;;;0.80;0.60;;;;;;;7.57;77.36;101518.13;10542997;28;20061;-74
2022/09/07 19:28:01;;;;;;;1.30;0.90;;;;;;;7.53;76.72;101522.41;10543308;28;20044;-74
2022/09/07 19:33:08;;;;;;;1.08;0.85;;;;;;;7.44;77.88;101527.41;10541871;28;20044;-74
2022/09/07 19:38:13;;;;;;;1.75;1.02;;;;;;;7.40;77.98;101530.84;10554070;28;20055;-73
2022/09/07 19:43:15;;;;;;;0.82;0.70;;;;;;;7.35;77.21;101530.75;10536934;28;20051;-74
2022/09/07 19:48:18;;;;;;;0.73;0.60;;;;;;;7.26;78.31;101528.34;10567601;28;20052;-74
2022/09/07 19:53:21;;;;;;;0.70;0.65;;;;;;;7.24;78.20;101535.13;10567210;28;20160;-74
2022/09/07 19:58:23;;;;;;;1.92;0.70;;;;;;;7.20;78.77;101544.84;10560527;28;20513;-74
2022/09/07 20:03:31;;;;;;;1.45;0.90;;;;;;;7.20;78.58;101534.78;10564741;28;20051;-74
2022/09/07 20:08:34;;;;;;;2.20;0.93;;;;;;;7.20;78.81;101544.84;10562328;28;20047;-74
2022/09/07 20:13:38;;;;;;;1.73;0.80;;;;;;;7.23;78.81;101544.38;10565152;28;20131;-74
2022/09/07 20:18:41;;;;;;;0.90;0.60;;;;;;;7.23;78.34;101550.66;10564541;28;20050;-74
2022/09/07 20:23:43;;;;;;;0.70;0.70;;;;;;;7.24;77.66;101548.78;10561042;28;20036;-74
2022/09/07 20:28:46;;;;;;;0.70;0.70;;;;;;;7.23;78.51;101547.94;10567379;28;20040;-74
2022/09/07 20:33:49;;;;;;;0.82;0.60;;;;;;;7.21;78.01;101558.28;10557771;28;20531;-73
2022/09/07 20:38:53;;;;;;;0.80;0.50;;;;;;;7.19;78.25;101559.56;10561597;28;20044;-73
2022/09/07 20:44:00;;;;;;;0.60;0.60;;;;;;;7.15;78.24;101559.22;10568338;28;20048;-73
2022/09/07 20:49:04;;;;;;;0.60;0.40;;;;;;;7.15;78.39;101567.41;10563540;28;20053;-73
2022/09/07 20:54:06;;;;;;;1.15;0.60;;;;;;;7.15;78.49;101572.03;10555648;28;20043;-73
2022/09/07 20:59:10;;;;;;;0.93;0.70;;;;;;;7.13;78.04;101566.81;10551137;28;20036;-74
2022/09/07 21:04:13;;;;;;;1.00;0.70;;;;;;;7.14;78.41;101573.94;10564807;28;20036;-73
2022/09/07 21:09:15;;;;;;;1.40;0.60;;;;;;;7.12;78.53;101570.63;10588688;28;20063;-73
2022/09/07 21:14:19;;;;;;;0.57;0.52;;;;;;;7.10;78.25;101563.72;10572999;28;20035;-73
2022/09/07 21:19:21;;;;;;;0.95;0.60;;;;;;;7.07;78.61;101567.75;10575686;28;20056;-73
2022/09/07 21:24:24;;;;;;;1.15;0.55;;;;;;;7.09;78.66;101564.78;10574503;28;20067;-73
2022/09/07 21:29:26;;;;;;;2.42;0.88;;;;;;;7.03;79.20;101571.19;10571404;28;20046;-72
2022/09/07 21:34:28;;;;;;;0.65;0.43;;;;;;;6.94;79.22;101577.00;10572633;28;20043;-73
2022/09/07 21:39:31;;;;;;;0.40;0.32;;;;;;;6.91;79.32;101582.06;10574234;28;20044;-72
2022/09/07 21:44:33;;;;;;;2.42;1.33;;;;;;;6.87;79.95;101589.91;10573594;28;20040;-73
2022/09/07 21:49:35;;;;;;;0.70;0.60;;;;;;;6.84;79.35;101590.38;10572118;28;20047;-73
2022/09/07 21:54:37;;;;;;;0.50;0.50;;;;;;;6.84;79.86;101601.28;10572851;28;20048;-73
2022/09/07 21:59:39;;;;;;;0.32;0.22;;;;;;;6.83;79.56;101605.06;10573181;28;20413;-74
2022/09/07 22:04:42;;;;;;;0.52;0.52;;;;;;;6.83;79.82;101594.16;10574792;28;20044;-74
2022/09/07 22:09:44;;;;;;;0.70;0.52;;;;;;;6.81;80.43;101603.66;10582846;28;20051;-72
2022/09/07 22:14:46;;;;;;;2.67;0.60;;;;;;;6.80;79.48;101599.25;10570517;28;20044;-72
2022/09/07 22:19:48;;;;;;;2.22;0.80;;;;;;;6.82;79.77;101610.75;10566253;28;20062;-73
2022/09/07 22:24:50;;;;;;;0.47;0.40;;;;;;;6.86;79.77;101610.06;10568287;28;20036;-70
2022/09/07 22:29:54;;;;;;;0.40;0.40;;;;;;;6.90;79.46;101610.41;10554061;28;20414;-71
2022/09/07 22:34:56;;;;;;;0.88;0.45;;;;;;;6.90;79.40;101618.59;10568223;28;20405;-71
2022/09/07 22:39:58;;;;;;;1.00;0.60;;;;;;;6.89;79.55;101616.94;10572398;28;20036;-71
2022/09/07 22:45:00;;;;;;;1.45;0.80;;;;;;;6.81;80.02;101620.84;10570541;28;20055;-71
2022/09/07 22:50:03;;;;;;;1.58;0.70;;;;;;;6.73;80.49;101631.22;10566626;28;20040;-71
2022/09/07 22:55:06;;;;;;;0.85;0.68;;;;;;;6.70;79.74;101632.53;10570099;28;20043;-71
2022/09/07 23:00:08;;;;;;;1.20;0.93;;;;;;;6.70;80.80;101643.44;10564464;28;20040;-72
2022/09/07 23:05:11;;;;;;;2.17;0.60;;;;;;;6.72;81.00;101643.22;10565870;28;20054;-71
2022/09/07 23:10:13;;;;;;;0.90;0.68;;;;;;;6.74;80.78;101658.28;10572930;28;20048;-71
2022/09/07 23:15:15;;;;;;;0.82;0.50;;;;;;;6.74;80.27;101658.28;10571479;28;20549;-71
2022/09/07 23:20:17;;;;;;;0.00;0.00;;;;;;;6.74;80.79;101663.72;10570229;28;20047;-71
2022/09/07 23:25:20;;;;;;;1.02;0.47;;;;;;;6.74;80.65;101671.91;10571756;28;20520;-71
2022/09/07 23:30:22;;;;;;;0.30;0.30;;;;;;;6.77;80.64;101655.13;10567855;28;20051;-71
2022/09/07 23:35:24;;;;;;;2.83;0.50;;;;;;;6.77;80.88;101660.56;10574677;28;20425;-71
2022/09/07 23:40:29;;;;;;;0.80;0.38;;;;;;;6.74;80.30;101661.00;10567676;28;20047;-71
2022/09/07 23:45:31;;;;;;;0.57;0.40;;;;;;;6.77;80.92;101671.47;10567963;28;20053;-71